sensor_id;sensor_type;location;lat;lon;timestamp;pressure;altitude;pressure_sealevel;temperature;humidity
56006;BME280;41888;44.696;10.522;2023-02-16T00:00:29;101769.38;;;3.39;100.00
56006;BME280;41888;44.696;10.522;2023-02-16T00:02:56;101770.72;;;3.33;100.00
56006;BME280;41888;44.696;10.522;2023-02-16T00:05:28;101778.50;;;3.35;100.00
56006;BME280;41888;44.696;10.522;2023-02-16T00:07:55;101782.91;;;3.34;100.00
56006;BME280;41888;44.696;10.522;2023-02-16T00:10:23;101786.28;;;3.36;100.00
56006;BME280;41888;44.696;10.522;2023-02-16T00:12:50;101772.88;;;3.60;100.00
56006;BME280;41888;44.696;10.522;2023-02-16T00:15:35;101777.31;;;3.60;100.00
56006;BME280;41888;44.696;10.522;2023-02-16T00:18:02;101780.31;;;3.23;100.00
56006;BME280;41888;44.696;10.522;2023-02-16T00:20:29;101770.25;;;3.28;100.00
56006;BME280;41888;44.696;10.522;2023-02-16T00:22:55;101772.56;;;3.22;100.00
56006;BME280;41888;44.696;10.522;2023-02-16T00:25:22;101778.25;;;3.38;100.00
56006;BME280;41888;44.696;10.522;2023-02-16T00:27:48;101771.47;;;3.56;100.00
56006;BME280;41888;44.696;10.522;2023-02-16T00:30:16;101777.50;;;3.47;100.00
56006;BME280;41888;44.696;10.522;2023-02-16T00:32:43;101777.75;;;3.65;100.00
56006;BME280;41888;44.696;10.522;2023-02-16T00:35:20;101780.09;;;4.00;100.00
56006;BME280;41888;44.696;10.522;2023-02-16T00:37:47;101778.38;;;3.89;100.00
56006;BME280;41888;44.696;10.522;2023-02-16T00:40:15;101769.56;;;4.00;100.00
56006;BME280;41888;44.696;10.522;2023-02-16T00:42:43;101769.56;;;4.00;100.00
56006;BME280;41888;44.696;10.522;2023-02-16T00:45:18;101777.66;;;3.66;100.00
56006;BME280;41888;44.696;10.522;2023-02-16T00:47:49;101773.56;;;3.42;100.00
56006;BME280;41888;44.696;10.522;2023-02-16T00:50:23;101773.13;;;3.36;100.00
56006;BME280;41888;44.696;10.522;2023-02-16T00:52:50;101775.09;;;3.44;100.00
56006;BME280;41888;44.696;10.522;2023-02-16T00:55:21;101772.06;;;3.28;100.00
56006;BME280;41888;44.696;10.522;2023-02-16T01:00:47;101780.66;;;3.30;100.00
56006;BME280;41888;44.696;10.522;2023-02-16T01:03:21;101783.75;;;3.35;100.00
56006;BME280;41888;44.696;10.522;2023-02-16T01:05:49;101776.75;;;3.24;100.00
56006;BME280;41888;44.696;10.522;2023-02-16T01:08:35;101780.31;;;3.23;100.00
56006;BME280;41888;44.696;10.522;2023-02-16T01:11:21;101773.22;;;3.03;100.00
56006;BME280;41888;44.696;10.522;2023-02-16T01:13:49;101776.69;;;2.92;100.00
56006;BME280;41888;44.696;10.522;2023-02-16T01:16:32;101766.78;;;2.96;100.00
56006;BME280;41888;44.696;10.522;2023-02-16T01:19:00;101757.72;;;2.89;100.00
56006;BME280;41888;44.696;10.522;2023-02-16T01:21:26;101760.56;;;2.86;100.00
56006;BME280;41888;44.696;10.522;2023-02-16T01:23:52;101755.94;;;2.78;100.00
56006;BME280;41888;44.696;10.522;2023-02-16T01:26:22;101757.84;;;2.76;100.00
56006;BME280;41888;44.696;10.522;2023-02-16T01:28:49;101752.69;;;2.86;100.00
56006;BME280;41888;44.696;10.522;2023-02-16T01:31:16;101754.13;;;2.90;100.00
56006;BME280;41888;44.696;10.522;2023-02-16T01:33:42;101743.47;;;2.91;100.00
56006;BME280;41888;44.696;10.522;2023-02-16T01:36:28;101735.50;;;2.82;100.00
56006;BME280;41888;44.696;10.522;2023-02-16T01:38:56;101738.97;;;2.82;100.00
56006;BME280;41888;44.696;10.522;2023-02-16T01:44:16;101744.19;;;2.93;100.00
56006;BME280;41888;44.696;10.522;2023-02-16T01:47:50;101727.25;;;2.86;100.00
56006;BME280;41888;44.696;10.522;2023-02-16T01:49:51;101716.50;;;2.89;100.00
56006;BME280;41888;44.696;10.522;2023-02-16T01:52:35;101720.53;;;2.93;100.00
56006;BME280;41888;44.696;10.522;2023-02-16T01:55:55;101715.16;;;2.95;100.00
56006;BME280;41888;44.696;10.522;2023-02-16T01:58:47;101711.03;;;3.13;100.00
56006;BME280;41888;44.696;10.522;2023-02-16T02:01:33;101711.66;;;3.37;100.00
56006;BME280;41888;44.696;10.522;2023-02-16T02:04:07;101703.31;;;3.53;100.00
56006;BME280;41888;44.696;10.522;2023-02-16T02:06:53;101700.88;;;3.61;100.00
56006;BME280;41888;44.696;10.522;2023-02-16T02:15:21;101709.22;;;3.66;100.00
56006;BME280;41888;44.696;10.522;2023-02-16T02:17:48;101704.16;;;3.54;100.00
56006;BME280;41888;44.696;10.522;2023-02-16T02:23:28;101699.97;;;3.30;100.00
56006;BME280;41888;44.696;10.522;2023-02-16T02:40:40;101712.81;;;3.45;100.00
56006;BME280;41888;44.696;10.522;2023-02-16T02:43:28;101706.38;;;3.17;100.00
56006;BME280;41888;44.696;10.522;2023-02-16T02:46:14;101702.25;;;2.92;100.00
56006;BME280;41888;44.696;10.522;2023-02-16T02:48:41;101700.19;;;2.75;100.00
56006;BME280;41888;44.696;10.522;2023-02-16T02:51:10;101698.59;;;2.83;100.00
56006;BME280;41888;44.696;10.522;2023-02-16T02:57:52;101695.00;;;3.16;100.00
56006;BME280;41888;44.696;10.522;2023-02-16T03:03:27;101709.53;;;3.00;100.00
56006;BME280;41888;44.696;10.522;2023-02-16T03:06:08;101711.97;;;2.80;100.00
56006;BME280;41888;44.696;10.522;2023-02-16T03:08:38;101712.25;;;2.66;100.00
56006;BME280;41888;44.696;10.522;2023-02-16T03:11:14;101720.63;;;2.49;100.00
56006;BME280;41888;44.696;10.522;2023-02-16T03:14:09;101720.16;;;2.33;100.00
56006;BME280;41888;44.696;10.522;2023-02-16T03:16:45;101719.94;;;2.36;100.00
56006;BME280;41888;44.696;10.522;2023-02-16T03:19:15;101723.97;;;2.51;100.00
56006;BME280;41888;44.696;10.522;2023-02-16T03:22:01;101718.47;;;2.54;100.00
56006;BME280;41888;44.696;10.522;2023-02-16T03:24:47;101722.06;;;2.53;100.00
56006;BME280;41888;44.696;10.522;2023-02-16T03:27:35;101718.44;;;2.65;100.00
56006;BME280;41888;44.696;10.522;2023-02-16T03:30:22;101720.59;;;2.60;100.00
56006;BME280;41888;44.696;10.522;2023-02-16T03:32:49;101718.81;;;2.72;100.00
56006;BME280;41888;44.696;10.522;2023-02-16T03:35:16;101725.38;;;2.66;100.00
56006;BME280;41888;44.696;10.522;2023-02-16T03:37:43;101715.63;;;2.46;100.00
56006;BME280;41888;44.696;10.522;2023-02-16T03:40:13;101721.59;;;2.15;100.00
56006;BME280;41888;44.696;10.522;2023-02-16T03:43:09;101725.41;;;1.99;100.00
56006;BME280;41888;44.696;10.522;2023-02-16T03:45:40;101725.41;;;2.10;100.00
56006;BME280;41888;44.696;10.522;2023-02-16T03:48:08;101723.50;;;2.12;100.00
56006;BME280;41888;44.696;10.522;2023-02-16T03:50:34;101732.09;;;2.03;100.00
56006;BME280;41888;44.696;10.522;2023-02-16T03:53:01;101725.31;;;2.01;100.00
56006;BME280;41888;44.696;10.522;2023-02-16T03:55:41;101730.53;;;1.90;100.00
56006;BME280;41888;44.696;10.522;2023-02-16T03:58:11;101732.53;;;1.86;100.00
56006;BME280;41888;44.696;10.522;2023-02-16T04:00:38;101728.75;;;1.90;100.00
56006;BME280;41888;44.696;10.522;2023-02-16T04:03:05;101734.22;;;1.87;100.00
56006;BME280;41888;44.696;10.522;2023-02-16T04:05:32;101730.50;;;1.79;100.00
56006;BME280;41888;44.696;10.522;2023-02-16T04:07:58;101738.16;;;1.93;100.00
56006;BME280;41888;44.696;10.522;2023-02-16T04:10:25;101737.25;;;2.16;100.00
56006;BME280;41888;44.696;10.522;2023-02-16T04:12:51;101737.25;;;2.27;100.00
56006;BME280;41888;44.696;10.522;2023-02-16T04:15:23;101731.16;;;2.27;100.00
56006;BME280;41888;44.696;10.522;2023-02-16T04:17:49;101742.59;;;2.37;100.00
56006;BME280;41888;44.696;10.522;2023-02-16T04:20:19;101733.28;;;2.33;100.00
56006;BME280;41888;44.696;10.522;2023-02-16T04:22:46;101739.50;;;2.32;100.00
56006;BME280;41888;44.696;10.522;2023-02-16T04:25:13;101737.34;;;2.37;100.00
56006;BME280;41888;44.696;10.522;2023-02-16T04:27:40;101742.81;;;2.23;100.00
56006;BME280;41888;44.696;10.522;2023-02-16T04:30:11;101739.38;;;2.00;100.00
56006;BME280;41888;44.696;10.522;2023-02-16T04:32:37;101738.28;;;2.13;100.00
56006;BME280;41888;44.696;10.522;2023-02-16T04:35:04;101746.88;;;2.04;100.00
56006;BME280;41888;44.696;10.522;2023-02-16T04:37:30;101735.78;;;2.01;100.00
56006;BME280;41888;44.696;10.522;2023-02-16T04:39:56;101732.56;;;2.08;100.00
56006;BME280;41888;44.696;10.522;2023-02-16T04:42:23;101736.50;;;2.14;100.00
56006;BME280;41888;44.696;10.522;2023-02-16T04:44:49;101747.59;;;2.18;100.00
56006;BME280;41888;44.696;10.522;2023-02-16T04:47:16;101746.41;;;2.10;100.00
56006;BME280;41888;44.696;10.522;2023-02-16T04:49:42;101741.66;;;2.16;100.00
56006;BME280;41888;44.696;10.522;2023-02-16T04:52:08;101741.66;;;2.27;100.00
56006;BME280;41888;44.696;10.522;2023-02-16T04:54:34;101747.13;;;2.24;100.00
56006;BME280;41888;44.696;10.522;2023-02-16T04:57:00;101743.44;;;2.37;100.00
56006;BME280;41888;44.696;10.522;2023-02-16T04:59:26;101748.34;;;2.31;100.00
56006;BME280;41888;44.696;10.522;2023-02-16T05:01:53;101747.59;;;2.18;100.00
56006;BME280;41888;44.696;10.522;2023-02-16T05:04:19;101744.84;;;1.97;100.00
56006;BME280;41888;44.696;10.522;2023-02-16T05:06:45;101744.13;;;1.84;100.00
56006;BME280;41888;44.696;10.522;2023-02-16T05:09:11;101741.22;;;1.76;100.00
56006;BME280;41888;44.696;10.522;2023-02-16T05:11:37;101741.88;;;1.90;100.00
56006;BME280;41888;44.696;10.522;2023-02-16T05:14:28;101744.63;;;2.00;100.00
56006;BME280;41888;44.696;10.522;2023-02-16T05:17:22;101750.22;;;2.06;100.00
56006;BME280;41888;44.696;10.522;2023-02-16T05:19:55;101743.31;;;2.28;100.00
56006;BME280;41888;44.696;10.522;2023-02-16T05:22:22;101743.44;;;2.15;100.00
56006;BME280;41888;44.696;10.522;2023-02-16T05:24:49;101747.13;;;2.35;100.00
56006;BME280;41888;44.696;10.522;2023-02-16T05:27:21;101745.69;;;2.20;100.00
56006;BME280;41888;44.696;10.522;2023-02-16T05:29:47;101744.28;;;2.16;100.00
56006;BME280;41888;44.696;10.522;2023-02-16T05:32:14;101750.38;;;2.16;100.00
56006;BME280;41888;44.696;10.522;2023-02-16T05:34:40;101747.38;;;2.21;100.00
56006;BME280;41888;44.696;10.522;2023-02-16T05:37:07;101750.13;;;2.19;100.00
56006;BME280;41888;44.696;10.522;2023-02-16T05:39:33;101746.91;;;2.27;100.00
56006;BME280;41888;44.696;10.522;2023-02-16T05:41:59;101756.59;;;2.48;100.00
56006;BME280;41888;44.696;10.522;2023-02-16T05:44:25;101751.66;;;2.33;100.00
56006;BME280;41888;44.696;10.522;2023-02-16T05:46:51;101758.94;;;2.07;100.00
56006;BME280;41888;44.696;10.522;2023-02-16T05:49:17;101766.34;;;2.13;100.00
56006;BME280;41888;44.696;10.522;2023-02-16T05:51:44;101764.81;;;2.10;100.00
56006;BME280;41888;44.696;10.522;2023-02-16T05:54:11;101764.78;;;1.99;100.00
56006;BME280;41888;44.696;10.522;2023-02-16T05:56:46;101761.03;;;1.91;100.00
56006;BME280;41888;44.696;10.522;2023-02-16T05:59:14;101757.09;;;1.85;100.00
56006;BME280;41888;44.696;10.522;2023-02-16T06:01:41;101763.44;;;1.94;100.00
56006;BME280;41888;44.696;10.522;2023-02-16T06:04:08;101766.19;;;1.92;100.00
56006;BME280;41888;44.696;10.522;2023-02-16T06:06:36;101770.34;;;1.84;100.00
56006;BME280;41888;44.696;10.522;2023-02-16T06:09:06;101772.13;;;1.83;100.00
56006;BME280;41888;44.696;10.522;2023-02-16T06:11:33;101768.34;;;1.98;100.00
56006;BME280;41888;44.696;10.522;2023-02-16T06:14:11;101768.38;;;2.09;100.00
56006;BME280;41888;44.696;10.522;2023-02-16T06:16:40;101768.72;;;2.05;100.00
56006;BME280;41888;44.696;10.522;2023-02-16T06:19:07;101775.28;;;1.99;100.00
56006;BME280;41888;44.696;10.522;2023-02-16T06:21:34;101778.38;;;2.04;100.00
56006;BME280;41888;44.696;10.522;2023-02-16T06:24:01;101784.06;;;1.87;100.00
56006;BME280;41888;44.696;10.522;2023-02-16T06:26:27;101783.34;;;1.85;100.00
56006;BME280;41888;44.696;10.522;2023-02-16T06:28:55;101786.09;;;1.84;100.00
56006;BME280;41888;44.696;10.522;2023-02-16T06:31:21;101786.69;;;1.87;100.00
56006;BME280;41888;44.696;10.522;2023-02-16T06:33:48;101785.16;;;1.85;100.00
56006;BME280;41888;44.696;10.522;2023-02-16T06:36:15;101783.16;;;1.99;100.00
56006;BME280;41888;44.696;10.522;2023-02-16T06:38:41;101795.59;;;2.31;100.00
56006;BME280;41888;44.696;10.522;2023-02-16T06:41:08;101800.63;;;2.67;100.00
56006;BME280;41888;44.696;10.522;2023-02-16T06:43:34;101807.75;;;2.98;100.00
56006;BME280;41888;44.696;10.522;2023-02-16T06:46:00;101806.03;;;3.63;97.42
56006;BME280;41888;44.696;10.522;2023-02-16T06:48:27;101805.47;;;3.80;94.81
56006;BME280;41888;44.696;10.522;2023-02-16T06:50:53;101802.38;;;3.75;93.96
56006;BME280;41888;44.696;10.522;2023-02-16T06:53:19;101800.69;;;3.53;96.43
56006;BME280;41888;44.696;10.522;2023-02-16T06:55:48;101801.56;;;3.74;94.95
56006;BME280;41888;44.696;10.522;2023-02-16T06:58:14;101796.84;;;3.99;93.41
56006;BME280;41888;44.696;10.522;2023-02-16T07:00:41;101809.53;;;4.35;91.69
56006;BME280;41888;44.696;10.522;2023-02-16T07:03:07;101810.00;;;4.40;90.57
56006;BME280;41888;44.696;10.522;2023-02-16T07:05:33;101811.94;;;4.38;90.32
56006;BME280;41888;44.696;10.522;2023-02-16T07:07:59;101811.84;;;4.49;90.38
56006;BME280;41888;44.696;10.522;2023-02-16T07:10:25;101813.66;;;4.49;90.21
56006;BME280;41888;44.696;10.522;2023-02-16T07:12:51;101814.03;;;4.44;90.55
56006;BME280;41888;44.696;10.522;2023-02-16T07:15:18;101816.66;;;4.44;90.46
56006;BME280;41888;44.696;10.522;2023-02-16T07:17:44;101812.94;;;4.47;90.73
56006;BME280;41888;44.696;10.522;2023-02-16T07:20:10;101817.44;;;4.65;89.72
56006;BME280;41888;44.696;10.522;2023-02-16T07:22:37;101826.50;;;4.73;89.44
56006;BME280;41888;44.696;10.522;2023-02-16T07:25:04;101825.69;;;4.82;88.89
56006;BME280;41888;44.696;10.522;2023-02-16T07:27:30;101816.31;;;4.98;88.18
56006;BME280;41888;44.696;10.522;2023-02-16T07:29:56;101826.94;;;5.18;87.49
56006;BME280;41888;44.696;10.522;2023-02-16T07:32:22;101826.56;;;5.41;86.12
56006;BME280;41888;44.696;10.522;2023-02-16T07:34:48;101829.19;;;5.51;86.30
56006;BME280;41888;44.696;10.522;2023-02-16T07:37:14;101834.63;;;5.69;85.59
56006;BME280;41888;44.696;10.522;2023-02-16T07:39:40;101831.84;;;5.80;84.88
56006;BME280;41888;44.696;10.522;2023-02-16T07:42:06;101831.88;;;5.99;84.44
56006;BME280;41888;44.696;10.522;2023-02-16T07:44:33;101836.56;;;6.15;84.66
56006;BME280;41888;44.696;10.522;2023-02-16T07:46:59;101842.66;;;6.44;83.43
56006;BME280;41888;44.696;10.522;2023-02-16T07:49:25;101845.47;;;6.70;82.82
56006;BME280;41888;44.696;10.522;2023-02-16T07:51:51;101853.97;;;7.01;82.00
56006;BME280;41888;44.696;10.522;2023-02-16T07:54:17;101850.13;;;7.40;81.31
56006;BME280;41888;44.696;10.522;2023-02-16T07:56:43;101853.75;;;7.57;80.81
56006;BME280;41888;44.696;10.522;2023-02-16T07:59:09;101856.06;;;7.70;80.44
56006;BME280;41888;44.696;10.522;2023-02-16T08:01:37;101858.94;;;7.76;81.02
56006;BME280;41888;44.696;10.522;2023-02-16T08:04:03;101865.13;;;7.85;81.49
56006;BME280;41888;44.696;10.522;2023-02-16T08:06:29;101863.19;;;7.87;81.61
56006;BME280;41888;44.696;10.522;2023-02-16T08:08:56;101866.47;;;8.06;82.56
56006;BME280;41888;44.696;10.522;2023-02-16T08:11:23;101861.53;;;8.29;81.91
56006;BME280;41888;44.696;10.522;2023-02-16T08:13:50;101872.31;;;8.54;81.22
56006;BME280;41888;44.696;10.522;2023-02-16T08:16:22;101872.63;;;8.76;81.24
56006;BME280;41888;44.696;10.522;2023-02-16T08:18:48;101879.88;;;9.00;80.37
56006;BME280;41888;44.696;10.522;2023-02-16T08:21:28;101883.81;;;9.30;79.76
56006;BME280;41888;44.696;10.522;2023-02-16T08:24:02;101887.03;;;9.50;78.42
56006;BME280;41888;44.696;10.522;2023-02-16T08:26:36;101886.56;;;9.70;78.29
56006;BME280;41888;44.696;10.522;2023-02-16T08:29:04;101893.75;;;10.02;76.74
56006;BME280;41888;44.696;10.522;2023-02-16T08:31:32;101895.25;;;10.05;75.08
56006;BME280;41888;44.696;10.522;2023-02-16T08:34:01;101893.28;;;10.15;74.25
56006;BME280;41888;44.696;10.522;2023-02-16T08:36:33;101896.97;;;10.30;73.87
56006;BME280;41888;44.696;10.522;2023-02-16T08:39:20;101907.59;;;10.46;73.60
56006;BME280;41888;44.696;10.522;2023-02-16T08:41:48;101899.75;;;10.61;72.35
56006;BME280;41888;44.696;10.522;2023-02-16T08:44:16;101892.06;;;10.74;71.72
56006;BME280;41888;44.696;10.522;2023-02-16T08:46:45;101899.72;;;10.77;72.02
56006;BME280;41888;44.696;10.522;2023-02-16T08:49:13;101894.50;;;10.92;71.53
56006;BME280;41888;44.696;10.522;2023-02-16T08:51:48;101897.78;;;11.10;70.60
56006;BME280;41888;44.696;10.522;2023-02-16T08:54:21;101906.19;;;11.30;69.34
56006;BME280;41888;44.696;10.522;2023-02-16T08:56:47;101912.84;;;11.65;68.23
56006;BME280;41888;44.696;10.522;2023-02-16T08:59:19;101916.72;;;12.16;67.31
56006;BME280;41888;44.696;10.522;2023-02-16T09:01:45;101912.75;;;12.64;65.14
56006;BME280;41888;44.696;10.522;2023-02-16T09:04:13;101920.22;;;13.57;60.36
56006;BME280;41888;44.696;10.522;2023-02-16T09:06:41;101921.31;;;13.62;61.16
56006;BME280;41888;44.696;10.522;2023-02-16T09:09:09;101924.28;;;13.88;60.45
56006;BME280;41888;44.696;10.522;2023-02-16T09:11:36;101927.66;;;13.61;61.62
56006;BME280;41888;44.696;10.522;2023-02-16T09:14:02;101936.53;;;13.62;65.42
56006;BME280;41888;44.696;10.522;2023-02-16T09:16:30;101934.09;;;14.03;63.58
56006;BME280;41888;44.696;10.522;2023-02-16T09:19:00;101936.84;;;14.30;63.53
56006;BME280;41888;44.696;10.522;2023-02-16T09:21:29;101943.03;;;14.52;63.10
56006;BME280;41888;44.696;10.522;2023-02-16T09:24:00;101946.28;;;14.75;61.82
56006;BME280;41888;44.696;10.522;2023-02-16T09:26:29;101943.34;;;14.98;60.40
56006;BME280;41888;44.696;10.522;2023-02-16T09:28:56;101945.53;;;15.16;59.79
56006;BME280;41888;44.696;10.522;2023-02-16T09:31:25;101946.88;;;15.81;57.78
56006;BME280;41888;44.696;10.522;2023-02-16T09:33:56;101954.22;;;16.79;54.24
56006;BME280;41888;44.696;10.522;2023-02-16T09:36:23;101953.81;;;16.62;54.27
56006;BME280;41888;44.696;10.522;2023-02-16T09:38:49;101949.44;;;16.22;54.91
56006;BME280;41888;44.696;10.522;2023-02-16T09:44:47;101950.50;;;14.91;60.02
56006;BME280;41888;44.696;10.522;2023-02-16T09:47:20;101955.78;;;15.94;57.80
56006;BME280;41888;44.696;10.522;2023-02-16T09:49:47;101955.84;;;16.93;53.10
56006;BME280;41888;44.696;10.522;2023-02-16T09:52:22;101958.53;;;17.70;51.21
56006;BME280;41888;44.696;10.522;2023-02-16T09:54:56;101955.16;;;18.44;49.21
56006;BME280;41888;44.696;10.522;2023-02-16T09:57:47;101954.56;;;18.11;48.90
56006;BME280;41888;44.696;10.522;2023-02-16T10:03:01;101949.81;;;17.75;50.50
56006;BME280;41888;44.696;10.522;2023-02-16T10:05:45;101944.69;;;17.54;51.25
56006;BME280;41888;44.696;10.522;2023-02-16T10:08:20;101951.50;;;17.63;50.40
56006;BME280;41888;44.696;10.522;2023-02-16T10:13:39;101952.00;;;18.54;48.20
56006;BME280;41888;44.696;10.522;2023-02-16T10:16:14;101952.84;;;19.34;46.39
56006;BME280;41888;44.696;10.522;2023-02-16T10:18:46;101956.09;;;18.81;46.92
56006;BME280;41888;44.696;10.522;2023-02-16T10:21:18;101945.56;;;18.24;48.31
56006;BME280;41888;44.696;10.522;2023-02-16T10:24:04;101948.50;;;17.84;48.67
56006;BME280;41888;44.696;10.522;2023-02-16T10:26:41;101945.16;;;18.20;48.80
56006;BME280;41888;44.696;10.522;2023-02-16T10:29:15;101940.28;;;18.35;48.47
56006;BME280;41888;44.696;10.522;2023-02-16T10:39:15;101954.91;;;18.95;46.10
56006;BME280;41888;44.696;10.522;2023-02-16T10:41:51;101941.44;;;19.32;46.40
56006;BME280;41888;44.696;10.522;2023-02-16T10:44:36;101940.38;;;19.69;44.99
56006;BME280;41888;44.696;10.522;2023-02-16T10:50:35;101931.97;;;19.41;45.43
56006;BME280;41888;44.696;10.522;2023-02-16T10:53:13;101937.47;;;18.55;47.12
56006;BME280;41888;44.696;10.522;2023-02-16T10:55:40;101933.03;;;19.04;45.52
56006;BME280;41888;44.696;10.522;2023-02-16T10:58:28;101930.94;;;19.42;44.84
56006;BME280;41888;44.696;10.522;2023-02-16T11:01:10;101932.59;;;19.91;42.54
56006;BME280;41888;44.696;10.522;2023-02-16T11:03:44;101926.53;;;20.49;41.88
56006;BME280;41888;44.696;10.522;2023-02-16T11:06:16;101921.66;;;19.38;43.89
56006;BME280;41888;44.696;10.522;2023-02-16T11:08:52;101920.81;;;18.83;45.71
56006;BME280;41888;44.696;10.522;2023-02-16T11:11:24;101925.66;;;18.74;45.77
56006;BME280;41888;44.696;10.522;2023-02-16T11:14:02;101920.97;;;18.88;45.49
56006;BME280;41888;44.696;10.522;2023-02-16T11:16:29;101912.97;;;18.81;45.48
56006;BME280;41888;44.696;10.522;2023-02-16T11:18:59;101904.72;;;18.76;46.06
56006;BME280;41888;44.696;10.522;2023-02-16T11:22:01;101901.84;;;19.44;45.08
56006;BME280;41888;44.696;10.522;2023-02-16T11:24:30;101906.13;;;19.15;45.00
56006;BME280;41888;44.696;10.522;2023-02-16T11:27:01;101898.34;;;20.03;43.60
56006;BME280;41888;44.696;10.522;2023-02-16T11:29:28;101899.47;;;20.49;42.30
56006;BME280;41888;44.696;10.522;2023-02-16T11:31:55;101891.91;;;19.74;43.19
56006;BME280;41888;44.696;10.522;2023-02-16T11:34:44;101898.47;;;20.08;43.08
56006;BME280;41888;44.696;10.522;2023-02-16T11:37:33;101886.72;;;19.25;44.18
56006;BME280;41888;44.696;10.522;2023-02-16T11:40:06;101888.59;;;19.72;42.75
56006;BME280;41888;44.696;10.522;2023-02-16T11:42:40;101888.38;;;19.74;42.74
56006;BME280;41888;44.696;10.522;2023-02-16T11:45:25;101878.47;;;19.38;43.09
56006;BME280;41888;44.696;10.522;2023-02-16T11:48:05;101879.19;;;19.63;43.76
56006;BME280;41888;44.696;10.522;2023-02-16T11:50:37;101872.88;;;19.69;43.11
56006;BME280;41888;44.696;10.522;2023-02-16T11:55:40;101871.56;;;20.95;40.49
56006;BME280;41888;44.696;10.522;2023-02-16T12:19:07;101841.63;;;18.95;44.59
56006;BME280;41888;44.696;10.522;2023-02-16T12:21:38;101835.16;;;19.63;43.40
56006;BME280;41888;44.696;10.522;2023-02-16T12:24:10;101840.13;;;18.63;44.15
56006;BME280;41888;44.696;10.522;2023-02-16T12:26:48;101834.72;;;18.45;45.05
56006;BME280;41888;44.696;10.522;2023-02-16T12:32:14;101825.06;;;18.12;45.79
56006;BME280;41888;44.696;10.522;2023-02-16T12:38:08;101807.78;;;16.88;48.85
56006;BME280;41888;44.696;10.522;2023-02-16T12:44:34;101800.88;;;18.49;45.84
56006;BME280;41888;44.696;10.522;2023-02-16T12:46:46;101798.94;;;18.92;45.42
56006;BME280;41888;44.696;10.522;2023-02-16T12:49:20;101796.53;;;19.03;44.61
56006;BME280;41888;44.696;10.522;2023-02-16T12:52:10;101787.13;;;19.23;43.86
56006;BME280;41888;44.696;10.522;2023-02-16T13:06:20;101782.00;;;16.74;48.90
56006;BME280;41888;44.696;10.522;2023-02-16T13:08:59;101784.94;;;16.53;49.42
56006;BME280;41888;44.696;10.522;2023-02-16T13:11:33;101777.81;;;16.91;49.06
56006;BME280;41888;44.696;10.522;2023-02-16T13:14:05;101770.66;;;17.10;49.60
56006;BME280;41888;44.696;10.522;2023-02-16T13:19:11;101756.34;;;16.78;50.91
56006;BME280;41888;44.696;10.522;2023-02-16T13:44:49;101749.25;;;16.26;53.01
56006;BME280;41888;44.696;10.522;2023-02-16T13:47:14;101735.66;;;15.88;53.97
56006;BME280;41888;44.696;10.522;2023-02-16T13:49:43;101740.94;;;15.15;55.92
56006;BME280;41888;44.696;10.522;2023-02-16T13:52:34;101747.63;;;15.66;54.75
56006;BME280;41888;44.696;10.522;2023-02-16T13:55:04;101749.09;;;15.75;54.14
56006;BME280;41888;44.696;10.522;2023-02-16T14:00:42;101729.78;;;16.37;52.49
56006;BME280;41888;44.696;10.522;2023-02-16T14:05:44;101737.19;;;16.55;52.64
56006;BME280;41888;44.696;10.522;2023-02-16T14:08:25;101733.69;;;16.41;53.14
56006;BME280;41888;44.696;10.522;2023-02-16T14:13:43;101721.22;;;15.82;54.68
56006;BME280;41888;44.696;10.522;2023-02-16T14:18:44;101718.91;;;15.27;56.04
56006;BME280;41888;44.696;10.522;2023-02-16T14:23:59;101720.00;;;15.58;55.67
56006;BME280;41888;44.696;10.522;2023-02-16T14:26:29;101716.69;;;15.96;54.61
56006;BME280;41888;44.696;10.522;2023-02-16T14:29:12;101711.28;;;16.09;54.10
56006;BME280;41888;44.696;10.522;2023-02-16T14:32:15;101723.91;;;15.89;54.38
56006;BME280;41888;44.696;10.522;2023-02-16T14:35:05;101715.59;;;15.31;55.93
56006;BME280;41888;44.696;10.522;2023-02-16T14:38:21;101703.47;;;15.48;56.27
56006;BME280;41888;44.696;10.522;2023-02-16T14:40:50;101708.97;;;15.01;56.65
56006;BME280;41888;44.696;10.522;2023-02-16T14:43:39;101709.94;;;14.87;57.18
56006;BME280;41888;44.696;10.522;2023-02-16T14:52:59;101723.03;;;15.36;56.63
56006;BME280;41888;44.696;10.522;2023-02-16T15:01:17;101708.97;;;14.47;59.68
56006;BME280;41888;44.696;10.522;2023-02-16T15:03:52;101712.53;;;14.26;61.74
56006;BME280;41888;44.696;10.522;2023-02-16T15:06:32;101712.44;;;14.13;62.18
56006;BME280;41888;44.696;10.522;2023-02-16T15:11:51;101715.94;;;13.79;65.38
56006;BME280;41888;44.696;10.522;2023-02-16T15:14:45;101721.44;;;13.49;66.73
56006;BME280;41888;44.696;10.522;2023-02-16T15:17:23;101722.09;;;13.30;68.14
56006;BME280;41888;44.696;10.522;2023-02-16T15:19:53;101716.06;;;13.22;69.00
56006;BME280;41888;44.696;10.522;2023-02-16T15:22:23;101715.03;;;13.23;69.51
56006;BME280;41888;44.696;10.522;2023-02-16T15:24:55;101717.94;;;13.28;69.58
56006;BME280;41888;44.696;10.522;2023-02-16T15:27:23;101715.16;;;13.36;68.82
56006;BME280;41888;44.696;10.522;2023-02-16T15:32:55;101709.66;;;13.65;66.40
56006;BME280;41888;44.696;10.522;2023-02-16T15:35:34;101706.25;;;13.78;66.07
56006;BME280;41888;44.696;10.522;2023-02-16T15:40:41;101699.13;;;13.85;65.96
56006;BME280;41888;44.696;10.522;2023-02-16T15:46:00;101706.44;;;13.76;66.61
56006;BME280;41888;44.696;10.522;2023-02-16T15:51:21;101704.50;;;13.64;67.65